sensor_id;sensor_type;location;lat;lon;timestamp;P1;durP1;ratioP1;P2;durP2;ratioP2
77726;SDS011;68312;53.502;10.030;2023-05-27T00:00:56;9.02;;;2.95;;
77726;SDS011;68312;53.502;10.030;2023-05-27T00:03:24;15.55;;;3.10;;
77726;SDS011;68312;53.502;10.030;2023-05-27T00:05:50;13.55;;;3.95;;
77726;SDS011;68312;53.502;10.030;2023-05-27T00:08:15;16.10;;;2.95;;
77726;SDS011;68312;53.502;10.030;2023-05-27T00:10:41;12.98;;;2.90;;
77726;SDS011;68312;53.502;10.030;2023-05-27T00:13:06;14.05;;;2.83;;
77726;SDS011;68312;53.502;10.030;2023-05-27T00:15:32;15.50;;;3.22;;
77726;SDS011;68312;53.502;10.030;2023-05-27T00:17:58;11.38;;;2.85;;
77726;SDS011;68312;53.502;10.030;2023-05-27T00:20:27;11.10;;;2.80;;
77726;SDS011;68312;53.502;10.030;2023-05-27T00:22:53;6.03;;;2.78;;
77726;SDS011;68312;53.502;10.030;2023-05-27T00:25:18;13.88;;;2.80;;
77726;SDS011;68312;53.502;10.030;2023-05-27T00:27:44;13.90;;;3.15;;
77726;SDS011;68312;53.502;10.030;2023-05-27T00:30:09;13.38;;;3.10;;
77726;SDS011;68312;53.502;10.030;2023-05-27T00:32:35;11.55;;;3.25;;
77726;SDS011;68312;53.502;10.030;2023-05-27T00:35:01;18.38;;;2.85;;
77726;SDS011;68312;53.502;10.030;2023-05-27T00:37:29;15.02;;;3.47;;
77726;SDS011;68312;53.502;10.030;2023-05-27T00:39:57;13.77;;;2.90;;
77726;SDS011;68312;53.502;10.030;2023-05-27T00:42:23;8.65;;;2.72;;
77726;SDS011;68312;53.502;10.030;2023-05-27T00:44:48;11.60;;;2.70;;
77726;SDS011;68312;53.502;10.030;2023-05-27T00:47:14;11.52;;;2.60;;
77726;SDS011;68312;53.502;10.030;2023-05-27T00:49:40;14.35;;;3.17;;
77726;SDS011;68312;53.502;10.030;2023-05-27T00:52:06;9.13;;;2.63;;
77726;SDS011;68312;53.502;10.030;2023-05-27T00:54:35;15.35;;;3.58;;
77726;SDS011;68312;53.502;10.030;2023-05-27T00:57:00;13.90;;;2.60;;
77726;SDS011;68312;53.502;10.030;2023-05-27T00:59:26;12.25;;;2.60;;
77726;SDS011;68312;53.502;10.030;2023-05-27T01:01:52;11.95;;;2.72;;
77726;SDS011;68312;53.502;10.030;2023-05-27T01:04:17;14.43;;;3.05;;
77726;SDS011;68312;53.502;10.030;2023-05-27T01:09:38;18.13;;;3.00;;
77726;SDS011;68312;53.502;10.030;2023-05-27T01:15:19;12.35;;;3.08;;
77726;SDS011;68312;53.502;10.030;2023-05-27T01:17:48;15.45;;;2.92;;
77726;SDS011;68312;53.502;10.030;2023-05-27T01:20:21;10.45;;;2.75;;
77726;SDS011;68312;53.502;10.030;2023-05-27T01:22:50;13.02;;;2.50;;
77726;SDS011;68312;53.502;10.030;2023-05-27T01:25:17;17.00;;;3.15;;
77726;SDS011;68312;53.502;10.030;2023-05-27T01:27:43;9.52;;;2.70;;
77726;SDS011;68312;53.502;10.030;2023-05-27T01:30:08;10.82;;;2.40;;
77726;SDS011;68312;53.502;10.030;2023-05-27T01:32:42;12.18;;;2.70;;
77726;SDS011;68312;53.502;10.030;2023-05-27T01:35:19;10.77;;;2.78;;
77726;SDS011;68312;53.502;10.030;2023-05-27T01:37:54;12.27;;;2.92;;
77726;SDS011;68312;53.502;10.030;2023-05-27T01:40:26;12.05;;;2.72;;
77726;SDS011;68312;53.502;10.030;2023-05-27T01:42:53;12.00;;;2.42;;
77726;SDS011;68312;53.502;10.030;2023-05-27T01:45:24;10.05;;;2.75;;
77726;SDS011;68312;53.502;10.030;2023-05-27T01:47:50;10.55;;;2.72;;
77726;SDS011;68312;53.502;10.030;2023-05-27T01:50:16;8.55;;;2.85;;
77726;SDS011;68312;53.502;10.030;2023-05-27T01:52:41;10.40;;;3.22;;
77726;SDS011;68312;53.502;10.030;2023-05-27T01:55:07;8.85;;;2.97;;
77726;SDS011;68312;53.502;10.030;2023-05-27T01:57:33;11.05;;;2.45;;
77726;SDS011;68312;53.502;10.030;2023-05-27T01:59:58;13.00;;;2.67;;
77726;SDS011;68312;53.502;10.030;2023-05-27T02:02:24;11.20;;;3.25;;
77726;SDS011;68312;53.502;10.030;2023-05-27T02:04:49;10.85;;;3.13;;
77726;SDS011;68312;53.502;10.030;2023-05-27T02:07:15;16.83;;;4.32;;
77726;SDS011;68312;53.502;10.030;2023-05-27T02:09:40;7.80;;;2.53;;
77726;SDS011;68312;53.502;10.030;2023-05-27T02:12:06;14.93;;;2.88;;
77726;SDS011;68312;53.502;10.030;2023-05-27T02:14:32;8.25;;;2.35;;
77726;SDS011;68312;53.502;10.030;2023-05-27T02:17:00;13.40;;;3.60;;
77726;SDS011;68312;53.502;10.030;2023-05-27T02:19:26;13.85;;;2.22;;
77726;SDS011;68312;53.502;10.030;2023-05-27T02:21:51;13.57;;;3.30;;
77726;SDS011;68312;53.502;10.030;2023-05-27T02:24:17;11.85;;;2.95;;
77726;SDS011;68312;53.502;10.030;2023-05-27T02:26:42;10.88;;;2.65;;
77726;SDS011;68312;53.502;10.030;2023-05-27T02:29:08;16.23;;;4.00;;
77726;SDS011;68312;53.502;10.030;2023-05-27T02:31:33;9.02;;;2.42;;
77726;SDS011;68312;53.502;10.030;2023-05-27T02:33:58;9.70;;;2.58;;
77726;SDS011;68312;53.502;10.030;2023-05-27T02:36:24;8.93;;;3.10;;
77726;SDS011;68312;53.502;10.030;2023-05-27T02:38:49;7.40;;;2.50;;
77726;SDS011;68312;53.502;10.030;2023-05-27T02:41:15;10.55;;;2.83;;
77726;SDS011;68312;53.502;10.030;2023-05-27T02:43:40;7.45;;;2.35;;
77726;SDS011;68312;53.502;10.030;2023-05-27T02:46:09;11.65;;;2.88;;
77726;SDS011;68312;53.502;10.030;2023-05-27T02:48:34;8.38;;;2.60;;
77726;SDS011;68312;53.502;10.030;2023-05-27T02:51:00;10.85;;;3.20;;
77726;SDS011;68312;53.502;10.030;2023-05-27T02:53:25;13.95;;;3.00;;
77726;SDS011;68312;53.502;10.030;2023-05-27T02:55:51;6.97;;;2.45;;
77726;SDS011;68312;53.502;10.030;2023-05-27T02:58:17;7.78;;;2.33;;
77726;SDS011;68312;53.502;10.030;2023-05-27T03:00:42;4.20;;;2.35;;
77726;SDS011;68312;53.502;10.030;2023-05-27T03:03:08;14.07;;;3.28;;
77726;SDS011;68312;53.502;10.030;2023-05-27T03:05:34;16.10;;;2.70;;
77726;SDS011;68312;53.502;10.030;2023-05-27T03:08:00;7.32;;;2.35;;
77726;SDS011;68312;53.502;10.030;2023-05-27T03:10:27;11.88;;;2.50;;
77726;SDS011;68312;53.502;10.030;2023-05-27T03:12:55;10.30;;;2.63;;
77726;SDS011;68312;53.502;10.030;2023-05-27T03:15:21;11.82;;;2.72;;
77726;SDS011;68312;53.502;10.030;2023-05-27T03:17:46;8.98;;;2.88;;
77726;SDS011;68312;53.502;10.030;2023-05-27T03:20:12;11.95;;;3.05;;
77726;SDS011;68312;53.502;10.030;2023-05-27T03:22:38;13.10;;;3.17;;
77726;SDS011;68312;53.502;10.030;2023-05-27T03:25:04;11.82;;;2.72;;
77726;SDS011;68312;53.502;10.030;2023-05-27T03:27:31;10.23;;;2.78;;
77726;SDS011;68312;53.502;10.030;2023-05-27T03:29:57;9.68;;;2.67;;
77726;SDS011;68312;53.502;10.030;2023-05-27T03:32:22;12.82;;;2.60;;
77726;SDS011;68312;53.502;10.030;2023-05-27T03:34:48;12.25;;;3.13;;
77726;SDS011;68312;53.502;10.030;2023-05-27T03:37:13;10.35;;;2.90;;
77726;SDS011;68312;53.502;10.030;2023-05-27T03:39:39;5.93;;;2.50;;
77726;SDS011;68312;53.502;10.030;2023-05-27T03:42:05;6.97;;;2.47;;
77726;SDS011;68312;53.502;10.030;2023-05-27T03:44:31;13.00;;;3.05;;
77726;SDS011;68312;53.502;10.030;2023-05-27T03:46:57;13.70;;;3.33;;
77726;SDS011;68312;53.502;10.030;2023-05-27T03:49:23;10.63;;;3.85;;
77726;SDS011;68312;53.502;10.030;2023-05-27T03:51:49;7.30;;;2.60;;
77726;SDS011;68312;53.502;10.030;2023-05-27T03:54:14;10.32;;;3.13;;
77726;SDS011;68312;53.502;10.030;2023-05-27T03:56:40;9.45;;;2.50;;
77726;SDS011;68312;53.502;10.030;2023-05-27T03:59:05;9.50;;;2.55;;
77726;SDS011;68312;53.502;10.030;2023-05-27T04:01:31;10.90;;;2.50;;
77726;SDS011;68312;53.502;10.030;2023-05-27T04:03:56;11.07;;;2.88;;
77726;SDS011;68312;53.502;10.030;2023-05-27T04:06:22;9.55;;;3.03;;
77726;SDS011;68312;53.502;10.030;2023-05-27T04:08:47;16.08;;;4.18;;
77726;SDS011;68312;53.502;10.030;2023-05-27T04:11:13;11.45;;;3.40;;
77726;SDS011;68312;53.502;10.030;2023-05-27T04:13:42;5.43;;;2.28;;
77726;SDS011;68312;53.502;10.030;2023-05-27T04:16:07;13.15;;;2.88;;
77726;SDS011;68312;53.502;10.030;2023-05-27T04:18:33;11.80;;;3.20;;
77726;SDS011;68312;53.502;10.030;2023-05-27T04:20:59;10.45;;;2.85;;
77726;SDS011;68312;53.502;10.030;2023-05-27T04:23:24;7.15;;;2.63;;
77726;SDS011;68312;53.502;10.030;2023-05-27T04:25:50;10.48;;;2.90;;
77726;SDS011;68312;53.502;10.030;2023-05-27T04:28:16;8.70;;;2.88;;
77726;SDS011;68312;53.502;10.030;2023-05-27T04:30:41;11.30;;;3.08;;
77726;SDS011;68312;53.502;10.030;2023-05-27T04:33:07;13.13;;;2.95;;
77726;SDS011;68312;53.502;10.030;2023-05-27T04:35:32;8.75;;;2.63;;
77726;SDS011;68312;53.502;10.030;2023-05-27T04:37:59;12.55;;;3.53;;
77726;SDS011;68312;53.502;10.030;2023-05-27T04:40:25;12.02;;;2.92;;
77726;SDS011;68312;53.502;10.030;2023-05-27T04:42:50;11.20;;;3.42;;
77726;SDS011;68312;53.502;10.030;2023-05-27T04:45:16;11.73;;;3.67;;
77726;SDS011;68312;53.502;10.030;2023-05-27T04:47:41;12.98;;;3.92;;
77726;SDS011;68312;53.502;10.030;2023-05-27T04:50:07;18.70;;;4.00;;
77726;SDS011;68312;53.502;10.030;2023-05-27T04:52:34;14.43;;;3.75;;
77726;SDS011;68312;53.502;10.030;2023-05-27T04:55:00;10.27;;;3.60;;
77726;SDS011;68312;53.502;10.030;2023-05-27T04:57:25;17.13;;;3.40;;
77726;SDS011;68312;53.502;10.030;2023-05-27T04:59:51;11.05;;;3.70;;
77726;SDS011;68312;53.502;10.030;2023-05-27T05:02:16;18.60;;;4.55;;
77726;SDS011;68312;53.502;10.030;2023-05-27T05:04:42;13.07;;;4.28;;
77726;SDS011;68312;53.502;10.030;2023-05-27T05:07:07;14.68;;;4.75;;
77726;SDS011;68312;53.502;10.030;2023-05-27T05:09:32;14.52;;;5.10;;
77726;SDS011;68312;53.502;10.030;2023-05-27T05:11:58;16.30;;;4.82;;
77726;SDS011;68312;53.502;10.030;2023-05-27T05:14:23;18.05;;;5.13;;
77726;SDS011;68312;53.502;10.030;2023-05-27T05:16:49;13.93;;;4.20;;
77726;SDS011;68312;53.502;10.030;2023-05-27T05:19:14;16.25;;;4.65;;
77726;SDS011;68312;53.502;10.030;2023-05-27T05:21:40;12.65;;;4.65;;
77726;SDS011;68312;53.502;10.030;2023-05-27T05:24:05;15.45;;;4.78;;
77726;SDS011;68312;53.502;10.030;2023-05-27T05:26:31;17.30;;;5.90;;
77726;SDS011;68312;53.502;10.030;2023-05-27T05:28:57;15.23;;;6.47;;
77726;SDS011;68312;53.502;10.030;2023-05-27T05:31:23;21.92;;;6.82;;
77726;SDS011;68312;53.502;10.030;2023-05-27T05:33:48;19.38;;;6.70;;
77726;SDS011;68312;53.502;10.030;2023-05-27T05:36:14;18.98;;;6.25;;
77726;SDS011;68312;53.502;10.030;2023-05-27T05:38:39;19.65;;;5.45;;
77726;SDS011;68312;53.502;10.030;2023-05-27T05:41:05;17.67;;;6.85;;
77726;SDS011;68312;53.502;10.030;2023-05-27T05:43:30;23.38;;;6.80;;
77726;SDS011;68312;53.502;10.030;2023-05-27T05:45:55;21.60;;;5.90;;
77726;SDS011;68312;53.502;10.030;2023-05-27T05:48:21;20.73;;;6.40;;
77726;SDS011;68312;53.502;10.030;2023-05-27T05:50:47;21.83;;;6.00;;
77726;SDS011;68312;53.502;10.030;2023-05-27T05:53:12;14.85;;;5.65;;
77726;SDS011;68312;53.502;10.030;2023-05-27T05:55:37;16.67;;;5.75;;
77726;SDS011;68312;53.502;10.030;2023-05-27T05:58:03;19.17;;;5.85;;
77726;SDS011;68312;53.502;10.030;2023-05-27T06:00:28;15.65;;;4.60;;
77726;SDS011;68312;53.502;10.030;2023-05-27T06:02:54;18.55;;;5.38;;
77726;SDS011;68312;53.502;10.030;2023-05-27T06:05:19;22.50;;;5.82;;
77726;SDS011;68312;53.502;10.030;2023-05-27T06:07:45;15.88;;;4.30;;
77726;SDS011;68312;53.502;10.030;2023-05-27T06:10:10;17.20;;;4.32;;
77726;SDS011;68312;53.502;10.030;2023-05-27T06:12:36;9.38;;;2.97;;
77726;SDS011;68312;53.502;10.030;2023-05-27T06:15:02;11.90;;;2.88;;
77726;SDS011;68312;53.502;10.030;2023-05-27T06:17:28;7.70;;;2.60;;
77726;SDS011;68312;53.502;10.030;2023-05-27T06:19:53;14.45;;;3.08;;
77726;SDS011;68312;53.502;10.030;2023-05-27T06:22:19;13.20;;;3.63;;
77726;SDS011;68312;53.502;10.030;2023-05-27T06:24:44;10.50;;;3.13;;
77726;SDS011;68312;53.502;10.030;2023-05-27T06:27:10;8.13;;;2.65;;
77726;SDS011;68312;53.502;10.030;2023-05-27T06:29:35;14.68;;;3.17;;
77726;SDS011;68312;53.502;10.030;2023-05-27T06:32:01;11.68;;;2.83;;
77726;SDS011;68312;53.502;10.030;2023-05-27T06:34:26;10.52;;;2.92;;
77726;SDS011;68312;53.502;10.030;2023-05-27T06:36:55;13.30;;;3.38;;
77726;SDS011;68312;53.502;10.030;2023-05-27T06:39:20;11.20;;;2.97;;
77726;SDS011;68312;53.502;10.030;2023-05-27T06:41:46;13.50;;;2.67;;
77726;SDS011;68312;53.502;10.030;2023-05-27T06:44:11;10.13;;;2.50;;
77726;SDS011;68312;53.502;10.030;2023-05-27T06:46:36;12.27;;;3.00;;
77726;SDS011;68312;53.502;10.030;2023-05-27T06:49:02;9.68;;;3.08;;
77726;SDS011;68312;53.502;10.030;2023-05-27T06:51:28;9.57;;;3.00;;
77726;SDS011;68312;53.502;10.030;2023-05-27T06:53:53;7.72;;;2.80;;
77726;SDS011;68312;53.502;10.030;2023-05-27T06:56:19;14.35;;;3.25;;
77726;SDS011;68312;53.502;10.030;2023-05-27T06:58:45;12.52;;;3.08;;
77726;SDS011;68312;53.502;10.030;2023-05-27T07:01:10;10.25;;;2.80;;
77726;SDS011;68312;53.502;10.030;2023-05-27T07:03:36;13.27;;;2.70;;
77726;SDS011;68312;53.502;10.030;2023-05-27T07:06:02;10.60;;;3.10;;
77726;SDS011;68312;53.502;10.030;2023-05-27T07:08:27;9.82;;;3.10;;
77726;SDS011;68312;53.502;10.030;2023-05-27T07:10:53;13.40;;;2.83;;
77726;SDS011;68312;53.502;10.030;2023-05-27T07:13:18;17.10;;;3.17;;
77726;SDS011;68312;53.502;10.030;2023-05-27T07:15:44;13.50;;;2.90;;
77726;SDS011;68312;53.502;10.030;2023-05-27T07:18:12;12.30;;;3.65;;
77726;SDS011;68312;53.502;10.030;2023-05-27T07:20:38;7.65;;;2.83;;
77726;SDS011;68312;53.502;10.030;2023-05-27T07:23:03;11.27;;;2.95;;
77726;SDS011;68312;53.502;10.030;2023-05-27T07:25:29;12.65;;;2.80;;
77726;SDS011;68312;53.502;10.030;2023-05-27T07:27:54;9.85;;;3.25;;
77726;SDS011;68312;53.502;10.030;2023-05-27T07:30:20;11.63;;;2.80;;
77726;SDS011;68312;53.502;10.030;2023-05-27T07:32:46;11.90;;;2.85;;
77726;SDS011;68312;53.502;10.030;2023-05-27T07:35:11;10.23;;;2.63;;
77726;SDS011;68312;53.502;10.030;2023-05-27T07:37:37;9.32;;;2.65;;
77726;SDS011;68312;53.502;10.030;2023-05-27T07:40:02;13.40;;;3.13;;
77726;SDS011;68312;53.502;10.030;2023-05-27T07:42:29;9.95;;;2.92;;
77726;SDS011;68312;53.502;10.030;2023-05-27T07:44:54;11.18;;;2.28;;
77726;SDS011;68312;53.502;10.030;2023-05-27T07:47:20;10.35;;;2.53;;
77726;SDS011;68312;53.502;10.030;2023-05-27T07:49:45;13.68;;;2.97;;
77726;SDS011;68312;53.502;10.030;2023-05-27T07:52:11;9.02;;;2.67;;
77726;SDS011;68312;53.502;10.030;2023-05-27T07:54:40;8.50;;;2.50;;
77726;SDS011;68312;53.502;10.030;2023-05-27T07:57:05;11.70;;;2.90;;
77726;SDS011;68312;53.502;10.030;2023-05-27T07:59:31;12.85;;;2.85;;
77726;SDS011;68312;53.502;10.030;2023-05-27T08:01:56;11.75;;;2.80;;
77726;SDS011;68312;53.502;10.030;2023-05-27T08:04:22;11.77;;;2.90;;
77726;SDS011;68312;53.502;10.030;2023-05-27T08:06:47;8.98;;;2.47;;
77726;SDS011;68312;53.502;10.030;2023-05-27T08:09:13;9.63;;;2.45;;
77726;SDS011;68312;53.502;10.030;2023-05-27T08:11:38;12.93;;;2.63;;
77726;SDS011;68312;53.502;10.030;2023-05-27T08:14:04;12.18;;;2.75;;
77726;SDS011;68312;53.502;10.030;2023-05-27T08:16:29;7.75;;;2.20;;
77726;SDS011;68312;53.502;10.030;2023-05-27T08:18:55;13.30;;;2.88;;
77726;SDS011;68312;53.502;10.030;2023-05-27T08:21:20;14.68;;;2.95;;
77726;SDS011;68312;53.502;10.030;2023-05-27T08:23:46;12.90;;;3.10;;
77726;SDS011;68312;53.502;10.030;2023-05-27T08:26:11;7.32;;;2.58;;
77726;SDS011;68312;53.502;10.030;2023-05-27T08:28:37;9.95;;;2.50;;
77726;SDS011;68312;53.502;10.030;2023-05-27T08:31:03;13.23;;;2.95;;
77726;SDS011;68312;53.502;10.030;2023-05-27T08:33:29;8.07;;;2.60;;
77726;SDS011;68312;53.502;10.030;2023-05-27T08:35:55;11.05;;;3.05;;
77726;SDS011;68312;53.502;10.030;2023-05-27T08:38:21;11.20;;;2.85;;
77726;SDS011;68312;53.502;10.030;2023-05-27T08:40:47;8.25;;;2.70;;
77726;SDS011;68312;53.502;10.030;2023-05-27T08:43:13;7.68;;;3.00;;
77726;SDS011;68312;53.502;10.030;2023-05-27T08:45:41;12.50;;;2.40;;
77726;SDS011;68312;53.502;10.030;2023-05-27T08:48:08;12.45;;;2.65;;
77726;SDS011;68312;53.502;10.030;2023-05-27T08:50:38;12.63;;;3.15;;
77726;SDS011;68312;53.502;10.030;2023-05-27T08:53:03;17.77;;;4.10;;
77726;SDS011;68312;53.502;10.030;2023-05-27T08:55:30;9.90;;;2.50;;
77726;SDS011;68312;53.502;10.030;2023-05-27T08:57:58;13.55;;;2.60;;
77726;SDS011;68312;53.502;10.030;2023-05-27T09:00:24;7.95;;;2.50;;
77726;SDS011;68312;53.502;10.030;2023-05-27T09:02:51;7.05;;;2.45;;
77726;SDS011;68312;53.502;10.030;2023-05-27T09:05:17;9.32;;;2.63;;
77726;SDS011;68312;53.502;10.030;2023-05-27T09:07:43;11.98;;;2.55;;
77726;SDS011;68312;53.502;10.030;2023-05-27T09:10:09;10.15;;;2.78;;
77726;SDS011;68312;53.502;10.030;2023-05-27T09:12:35;9.55;;;2.90;;
77726;SDS011;68312;53.502;10.030;2023-05-27T09:15:04;11.23;;;2.85;;
77726;SDS011;68312;53.502;10.030;2023-05-27T09:17:31;9.30;;;2.78;;
77726;SDS011;68312;53.502;10.030;2023-05-27T09:19:57;9.85;;;2.40;;
77726;SDS011;68312;53.502;10.030;2023-05-27T09:22:23;11.10;;;2.78;;
77726;SDS011;68312;53.502;10.030;2023-05-27T09:24:55;10.35;;;2.92;;
77726;SDS011;68312;53.502;10.030;2023-05-27T09:27:27;14.35;;;2.95;;
77726;SDS011;68312;53.502;10.030;2023-05-27T09:29:56;10.43;;;2.63;;
77726;SDS011;68312;53.502;10.030;2023-05-27T09:32:30;9.07;;;2.47;;
77726;SDS011;68312;53.502;10.030;2023-05-27T09:35:00;8.50;;;3.15;;
77726;SDS011;68312;53.502;10.030;2023-05-27T09:37:27;9.15;;;2.80;;
77726;SDS011;68312;53.502;10.030;2023-05-27T09:39:56;8.55;;;2.95;;
77726;SDS011;68312;53.502;10.030;2023-05-27T09:42:21;10.63;;;2.53;;
77726;SDS011;68312;53.502;10.030;2023-05-27T09:44:47;6.85;;;2.60;;
77726;SDS011;68312;53.502;10.030;2023-05-27T09:47:12;10.55;;;3.33;;
77726;SDS011;68312;53.502;10.030;2023-05-27T09:49:42;13.43;;;3.08;;
77726;SDS011;68312;53.502;10.030;2023-05-27T09:52:11;9.70;;;3.70;;
77726;SDS011;68312;53.502;10.030;2023-05-27T09:54:39;12.05;;;3.08;;
77726;SDS011;68312;53.502;10.030;2023-05-27T09:57:06;8.23;;;2.92;;
77726;SDS011;68312;53.502;10.030;2023-05-27T09:59:33;11.43;;;3.00;;
77726;SDS011;68312;53.502;10.030;2023-05-27T10:02:00;10.07;;;3.13;;
77726;SDS011;68312;53.502;10.030;2023-05-27T10:04:26;9.35;;;4.32;;
77726;SDS011;68312;53.502;10.030;2023-05-27T10:06:54;11.40;;;3.90;;
77726;SDS011;68312;53.502;10.030;2023-05-27T10:09:19;9.80;;;3.53;;
77726;SDS011;68312;53.502;10.030;2023-05-27T10:11:45;10.90;;;3.20;;
77726;SDS011;68312;53.502;10.030;2023-05-27T10:14:11;9.90;;;2.88;;
77726;SDS011;68312;53.502;10.030;2023-05-27T10:16:37;7.63;;;2.90;;
77726;SDS011;68312;53.502;10.030;2023-05-27T10:19:08;9.57;;;3.22;;
77726;SDS011;68312;53.502;10.030;2023-05-27T10:21:41;11.32;;;3.30;;
77726;SDS011;68312;53.502;10.030;2023-05-27T10:24:10;12.02;;;3.22;;
77726;SDS011;68312;53.502;10.030;2023-05-27T10:26:38;8.23;;;2.80;;
77726;SDS011;68312;53.502;10.030;2023-05-27T10:29:16;11.68;;;3.30;;
77726;SDS011;68312;53.502;10.030;2023-05-27T10:31:50;10.55;;;3.40;;
77726;SDS011;68312;53.502;10.030;2023-05-27T10:34:17;7.05;;;2.60;;
77726;SDS011;68312;53.502;10.030;2023-05-27T10:36:44;8.57;;;2.72;;
77726;SDS011;68312;53.502;10.030;2023-05-27T10:39:12;12.77;;;3.33;;
77726;SDS011;68312;53.502;10.030;2023-05-27T10:41:50;9.77;;;3.22;;
77726;SDS011;68312;53.502;10.030;2023-05-27T10:44:31;11.52;;;3.20;;
77726;SDS011;68312;53.502;10.030;2023-05-27T10:49:28;10.77;;;3.45;;
77726;SDS011;68312;53.502;10.030;2023-05-27T10:51:59;11.10;;;3.40;;
77726;SDS011;68312;53.502;10.030;2023-05-27T10:54:25;10.32;;;3.58;;
77726;SDS011;68312;53.502;10.030;2023-05-27T10:56:51;8.00;;;3.00;;
77726;SDS011;68312;53.502;10.030;2023-05-27T10:59:19;10.35;;;3.67;;
77726;SDS011;68312;53.502;10.030;2023-05-27T11:01:53;10.35;;;3.55;;
77726;SDS011;68312;53.502;10.030;2023-05-27T11:04:19;11.50;;;3.42;;
77726;SDS011;68312;53.502;10.030;2023-05-27T11:06:57;10.20;;;3.20;;
77726;SDS011;68312;53.502;10.030;2023-05-27T11:09:25;11.68;;;3.58;;
77726;SDS011;68312;53.502;10.030;2023-05-27T11:11:50;6.97;;;2.83;;
77726;SDS011;68312;53.502;10.030;2023-05-27T11:14:16;12.45;;;3.10;;
77726;SDS011;68312;53.502;10.030;2023-05-27T11:16:45;13.63;;;3.70;;
77726;SDS011;68312;53.502;10.030;2023-05-27T11:19:13;8.25;;;2.97;;
77726;SDS011;68312;53.502;10.030;2023-05-27T11:21:44;8.77;;;3.50;;
77726;SDS011;68312;53.502;10.030;2023-05-27T11:26:44;8.52;;;3.55;;
77726;SDS011;68312;53.502;10.030;2023-05-27T11:29:12;7.35;;;2.83;;
77726;SDS011;68312;53.502;10.030;2023-05-27T11:31:40;9.52;;;3.40;;
77726;SDS011;68312;53.502;10.030;2023-05-27T11:34:13;10.05;;;3.15;;
77726;SDS011;68312;53.502;10.030;2023-05-27T11:36:45;10.65;;;3.30;;
77726;SDS011;68312;53.502;10.030;2023-05-27T11:39:14;11.07;;;3.57;;
77726;SDS011;68312;53.502;10.030;2023-05-27T11:41:49;8.20;;;3.15;;
77726;SDS011;68312;53.502;10.030;2023-05-27T11:44:18;7.38;;;3.03;;
77726;SDS011;68312;53.502;10.030;2023-05-27T11:46:47;7.50;;;2.60;;
77726;SDS011;68312;53.502;10.030;2023-05-27T11:49:15;11.50;;;3.17;;
77726;SDS011;68312;53.502;10.030;2023-05-27T11:51:48;6.82;;;2.90;;
77726;SDS011;68312;53.502;10.030;2023-05-27T11:54:25;10.55;;;3.53;;
77726;SDS011;68312;53.502;10.030;2023-05-27T11:56:54;11.25;;;3.22;;
77726;SDS011;68312;53.502;10.030;2023-05-27T11:59:22;10.00;;;3.30;;
77726;SDS011;68312;53.502;10.030;2023-05-27T12:01:48;7.55;;;2.42;;
77726;SDS011;68312;53.502;10.030;2023-05-27T12:04:15;7.35;;;3.67;;
77726;SDS011;68312;53.502;10.030;2023-05-27T12:06:40;10.57;;;3.13;;
77726;SDS011;68312;53.502;10.030;2023-05-27T12:09:07;9.80;;;3.58;;
77726;SDS011;68312;53.502;10.030;2023-05-27T12:11:33;10.30;;;3.15;;
77726;SDS011;68312;53.502;10.030;2023-05-27T12:14:00;8.88;;;3.28;;
77726;SDS011;68312;53.502;10.030;2023-05-27T12:16:26;9.65;;;2.85;;
77726;SDS011;68312;53.502;10.030;2023-05-27T12:18:52;9.32;;;3.10;;
77726;SDS011;68312;53.502;10.030;2023-05-27T12:21:18;7.28;;;3.35;;
77726;SDS011;68312;53.502;10.030;2023-05-27T12:23:45;9.05;;;3.05;;
77726;SDS011;68312;53.502;10.030;2023-05-27T12:26:12;9.38;;;3.13;;
77726;SDS011;68312;53.502;10.030;2023-05-27T12:28:40;11.50;;;3.10;;
77726;SDS011;68312;53.502;10.030;2023-05-27T12:31:07;9.73;;;3.45;;
77726;SDS011;68312;53.502;10.030;2023-05-27T12:33:33;11.13;;;3.10;;
77726;SDS011;68312;53.502;10.030;2023-05-27T12:35:59;9.32;;;4.05;;
77726;SDS011;68312;53.502;10.030;2023-05-27T12:38:26;10.80;;;2.80;;
77726;SDS011;68312;53.502;10.030;2023-05-27T12:40:52;14.43;;;3.47;;
77726;SDS011;68312;53.502;10.030;2023-05-27T12:43:18;9.60;;;2.97;;
77726;SDS011;68312;53.502;10.030;2023-05-27T12:45:44;7.85;;;3.25;;
77726;SDS011;68312;53.502;10.030;2023-05-27T12:48:11;7.35;;;2.38;;
77726;SDS011;68312;53.502;10.030;2023-05-27T12:50:39;8.18;;;2.83;;
77726;SDS011;68312;53.502;10.030;2023-05-27T12:53:07;8.10;;;2.58;;
77726;SDS011;68312;53.502;10.030;2023-05-27T12:55:34;10.23;;;3.40;;
77726;SDS011;68312;53.502;10.030;2023-05-27T12:57:59;7.95;;;2.72;;
77726;SDS011;68312;53.502;10.030;2023-05-27T13:00:25;11.98;;;2.92;;
77726;SDS011;68312;53.502;10.030;2023-05-27T13:02:50;10.73;;;2.83;;
77726;SDS011;68312;53.502;10.030;2023-05-27T13:05:16;9.68;;;2.92;;
77726;SDS011;68312;53.502;10.030;2023-05-27T13:07:58;10.25;;;3.10;;
77726;SDS011;68312;53.502;10.030;2023-05-27T13:10:27;10.60;;;3.05;;
77726;SDS011;68312;53.502;10.030;2023-05-27T13:12:54;10.32;;;3.33;;
77726;SDS011;68312;53.502;10.030;2023-05-27T13:15:20;7.70;;;3.15;;
77726;SDS011;68312;53.502;10.030;2023-05-27T13:17:48;11.20;;;3.20;;
77726;SDS011;68312;53.502;10.030;2023-05-27T13:20:16;7.35;;;3.03;;
77726;SDS011;68312;53.502;10.030;2023-05-27T13:22:42;8.85;;;2.80;;
77726;SDS011;68312;53.502;10.030;2023-05-27T13:25:09;11.25;;;3.00;;
77726;SDS011;68312;53.502;10.030;2023-05-27T13:27:36;12.48;;;3.28;;
77726;SDS011;68312;53.502;10.030;2023-05-27T13:30:03;11.10;;;3.13;;
77726;SDS011;68312;53.502;10.030;2023-05-27T13:32:30;8.68;;;3.05;;
77726;SDS011;68312;53.502;10.030;2023-05-27T13:34:56;6.75;;;2.70;;
77726;SDS011;68312;53.502;10.030;2023-05-27T13:37:21;6.50;;;2.40;;
77726;SDS011;68312;53.502;10.030;2023-05-27T13:39:47;8.20;;;2.67;;
77726;SDS011;68312;53.502;10.030;2023-05-27T13:42:13;7.22;;;2.60;;
77726;SDS011;68312;53.502;10.030;2023-05-27T13:44:38;7.30;;;2.63;;
77726;SDS011;68312;53.502;10.030;2023-05-27T13:47:04;6.82;;;2.60;;
77726;SDS011;68312;53.502;10.030;2023-05-27T13:49:30;9.02;;;2.60;;
77726;SDS011;68312;53.502;10.030;2023-05-27T13:51:56;7.82;;;2.60;;
77726;SDS011;68312;53.502;10.030;2023-05-27T13:54:21;5.00;;;2.20;;
77726;SDS011;68312;53.502;10.030;2023-05-27T13:56:47;9.70;;;3.03;;
77726;SDS011;68312;53.502;10.030;2023-05-27T13:59:12;8.13;;;3.05;;
77726;SDS011;68312;53.502;10.030;2023-05-27T14:01:39;8.75;;;2.75;;
77726;SDS011;68312;53.502;10.030;2023-05-27T14:04:05;10.07;;;2.42;;
77726;SDS011;68312;53.502;10.030;2023-05-27T14:06:30;8.40;;;2.63;;
77726;SDS011;68312;53.502;10.030;2023-05-27T14:08:56;11.10;;;2.53;;
77726;SDS011;68312;53.502;10.030;2023-05-27T14:11:22;8.60;;;2.42;;
77726;SDS011;68312;53.502;10.030;2023-05-27T14:13:48;8.95;;;2.30;;
77726;SDS011;68312;53.502;10.030;2023-05-27T14:16:15;8.02;;;2.55;;
77726;SDS011;68312;53.502;10.030;2023-05-27T14:18:41;7.45;;;2.45;;
77726;SDS011;68312;53.502;10.030;2023-05-27T14:21:07;7.35;;;2.20;;
77726;SDS011;68312;53.502;10.030;2023-05-27T14:23:32;6.93;;;2.42;;
77726;SDS011;68312;53.502;10.030;2023-05-27T14:25:58;7.25;;;2.35;;
77726;SDS011;68312;53.502;10.030;2023-05-27T14:28:23;10.25;;;2.60;;
77726;SDS011;68312;53.502;10.030;2023-05-27T14:30:49;6.40;;;2.00;;
77726;SDS011;68312;53.502;10.030;2023-05-27T14:33:14;7.22;;;2.00;;